createdAt,value
2022-08-14T00:01:36.627Z,99.90
2022-08-14T00:04:03.619Z,99.90
2022-08-14T00:06:50.303Z,99.90
2022-08-14T00:09:17.087Z,99.90
2022-08-14T00:11:44.697Z,99.90
2022-08-14T00:14:12.245Z,99.90
2022-08-14T00:16:45.206Z,99.90
2022-08-14T00:19:18.725Z,99.90
2022-08-14T00:21:47.785Z,99.90
2022-08-14T00:24:28.236Z,99.90
2022-08-14T00:26:56.279Z,99.90
2022-08-14T00:29:25.250Z,99.90
2022-08-14T00:31:55.279Z,99.90
2022-08-14T00:34:35.283Z,99.90
2022-08-14T00:37:05.585Z,99.90
2022-08-14T00:39:32.892Z,99.90
2022-08-14T00:41:59.744Z,99.90
2022-08-14T00:44:33.020Z,99.90
2022-08-14T00:47:10.832Z,99.90
2022-08-14T00:49:43.037Z,99.90
2022-08-14T00:52:18.066Z,99.90
2022-08-14T00:54:58.136Z,99.90
2022-08-14T00:57:27.677Z,99.90
2022-08-14T00:59:56.418Z,99.90
2022-08-14T01:02:27.730Z,99.90
2022-08-14T01:04:58.542Z,99.90
2022-08-14T01:07:28.539Z,99.90
2022-08-14T01:10:06.025Z,99.90
2022-08-14T01:12:33.856Z,99.90
2022-08-14T01:15:09.709Z,99.90
2022-08-14T01:18:00.255Z,99.90
2022-08-14T01:20:46.402Z,99.90
2022-08-14T01:23:16.104Z,99.90
2022-08-14T01:25:46.029Z,99.90
2022-08-14T01:28:47.067Z,99.90
2022-08-14T01:31:00.602Z,99.90
2022-08-14T01:33:30.171Z,99.90
2022-08-14T01:36:04.080Z,99.90
2022-08-14T01:38:34.385Z,99.90
2022-08-14T01:41:14.927Z,99.90
2022-08-14T01:43:56.662Z,99.90
2022-08-14T01:46:25.034Z,99.90
2022-08-14T01:48:52.169Z,99.90
2022-08-14T01:51:24.590Z,99.90
2022-08-14T01:53:56.010Z,99.90
2022-08-14T01:56:37.195Z,99.90
2022-08-14T01:59:21.578Z,99.90
2022-08-14T02:01:58.340Z,99.90
2022-08-14T02:04:54.612Z,99.90
2022-08-14T02:07:34.424Z,99.90
2022-08-14T02:10:06.772Z,99.90
2022-08-14T02:12:34.186Z,99.90
2022-08-14T02:15:02.050Z,99.90
2022-08-14T02:17:30.732Z,99.90
2022-08-14T02:19:57.705Z,99.90
2022-08-14T02:22:32.484Z,99.90
2022-08-14T02:25:01.385Z,99.90
2022-08-14T02:28:25.869Z,99.90
2022-08-14T02:30:16.588Z,99.90
2022-08-14T02:32:43.527Z,99.90
2022-08-14T02:35:19.214Z,99.90
2022-08-14T02:37:49.845Z,99.90
2022-08-14T02:40:32.548Z,99.90
2022-08-14T02:43:02.666Z,99.90
2022-08-14T02:45:37.876Z,99.90
2022-08-14T02:48:10.516Z,99.90
2022-08-14T02:50:56.980Z,99.90
2022-08-14T02:53:31.463Z,99.90
2022-08-14T02:56:03.104Z,99.90
2022-08-14T02:58:51.089Z,99.90
2022-08-14T03:01:21.169Z,99.90
2022-08-14T03:03:51.778Z,99.90
2022-08-14T03:06:49.106Z,99.90
2022-08-14T03:09:07.679Z,99.90
2022-08-14T03:11:35.358Z,99.90
2022-08-14T03:14:02.241Z,99.90
2022-08-14T03:16:36.206Z,99.90
2022-08-14T03:19:07.155Z,99.90
2022-08-14T03:21:34.914Z,99.90
2022-08-14T03:24:21.745Z,99.90
2022-08-14T03:26:57.395Z,99.90
2022-08-14T03:29:27.646Z,99.90
2022-08-14T03:31:56.372Z,99.90
2022-08-14T03:34:24.374Z,99.90
2022-08-14T03:37:51.823Z,99.90
2022-08-14T03:39:53.209Z,99.90
2022-08-14T03:42:21.344Z,99.90
2022-08-14T03:45:19.987Z,99.90
2022-08-14T03:47:46.629Z,99.90
2022-08-14T03:50:27.854Z,99.90
2022-08-14T03:53:01.260Z,99.90
2022-08-14T03:55:28.765Z,99.90
2022-08-14T03:57:57.587Z,99.90
2022-08-14T04:00:43.349Z,99.90
2022-08-14T04:03:15.226Z,99.90
2022-08-14T04:05:48.566Z,99.90
2022-08-14T04:08:30.157Z,99.90
2022-08-14T04:11:00.927Z,99.90
2022-08-14T04:13:31.708Z,99.90
2022-08-14T04:16:05.225Z,99.90
2022-08-14T04:18:34.203Z,99.90
2022-08-14T04:21:01.297Z,99.90
2022-08-14T04:23:29.465Z,99.90
2022-08-14T04:26:01.843Z,99.90
2022-08-14T04:29:01.945Z,99.90
2022-08-14T04:31:16.204Z,99.90
2022-08-14T04:33:43.113Z,99.90
2022-08-14T04:36:16.064Z,99.90
2022-08-14T04:39:02.884Z,99.90
2022-08-14T04:41:48.133Z,99.90
2022-08-14T04:44:26.803Z,99.90
2022-08-14T04:47:46.354Z,99.90
2022-08-14T04:50:13.389Z,99.90
2022-08-14T04:52:40.844Z,99.90
2022-08-14T04:55:10.475Z,99.90
2022-08-14T04:57:39.034Z,99.90
2022-08-14T05:00:07.283Z,99.90
2022-08-14T05:02:43.470Z,99.90
2022-08-14T05:05:10.331Z,99.90
2022-08-14T05:07:46.892Z,99.90
2022-08-14T05:10:25.947Z,99.90
2022-08-14T05:13:13.162Z,99.90
2022-08-14T05:15:42.243Z,99.90
2022-08-14T05:18:17.753Z,99.90
2022-08-14T05:21:57.419Z,99.90
2022-08-14T05:23:48.381Z,99.90
2022-08-14T05:26:17.176Z,99.90
2022-08-14T05:28:46.078Z,99.90
2022-08-14T05:31:20.665Z,99.90
2022-08-14T05:33:54.788Z,99.90
2022-08-14T05:36:25.166Z,99.90
2022-08-14T05:38:53.127Z,99.90
2022-08-14T05:41:20.319Z,99.90
2022-08-14T05:43:51.125Z,99.90
2022-08-14T05:46:22.632Z,99.90
2022-08-14T05:48:56.149Z,99.90
2022-08-14T05:51:24.951Z,99.90
2022-08-14T05:54:01.442Z,99.90
2022-08-14T05:56:37.278Z,99.90
2022-08-14T05:59:05.324Z,99.90
2022-08-14T06:01:32.469Z,99.90
2022-08-14T06:04:00.301Z,99.90
2022-08-14T06:06:27.082Z,99.90
2022-08-14T06:08:53.834Z,99.90
2022-08-14T06:11:27.984Z,99.90
2022-08-14T06:13:58.586Z,99.90
2022-08-14T06:16:25.761Z,99.90
2022-08-14T06:18:53.276Z,99.90
2022-08-14T06:21:23.331Z,99.90
2022-08-14T06:23:50.621Z,99.90
2022-08-14T06:26:20.888Z,99.90
2022-08-14T06:28:51.787Z,99.90
2022-08-14T06:31:20.490Z,99.90
2022-08-14T06:35:10.862Z,99.90
2022-08-14T06:36:35.120Z,99.90
2022-08-14T06:39:02.203Z,99.90
2022-08-14T06:41:52.717Z,99.90
2022-08-14T06:44:15.576Z,99.90
2022-08-14T06:46:42.683Z,99.90
2022-08-14T06:49:16.253Z,99.90
2022-08-14T06:51:46.750Z,99.90
2022-08-14T06:54:16.647Z,99.90
2022-08-14T06:56:44.484Z,99.90
2022-08-14T06:59:21.365Z,99.90
2022-08-14T07:02:13.268Z,99.90
2022-08-14T07:04:59.256Z,99.90
2022-08-14T07:07:28.764Z,99.90
2022-08-14T07:09:55.774Z,99.90
2022-08-14T07:12:54.204Z,99.90
2022-08-14T07:15:10.354Z,99.90
2022-08-14T07:17:51.942Z,96.20
2022-08-14T07:20:20.566Z,93.80
2022-08-14T07:23:07.422Z,92.90
2022-08-14T07:25:37.637Z,92.60
2022-08-14T07:28:20.866Z,92.40
2022-08-14T07:30:51.249Z,92.30
2022-08-14T07:33:24.413Z,91.70
2022-08-14T07:35:58.223Z,91.40
2022-08-14T07:38:32.024Z,90.80
2022-08-14T07:41:11.673Z,90.00
2022-08-14T07:43:42.510Z,89.40
2022-08-14T07:46:09.284Z,89.30
2022-08-14T07:48:40.801Z,88.80
2022-08-14T07:51:10.756Z,88.30
2022-08-14T07:53:40.885Z,86.80
2022-08-14T07:56:21.854Z,83.80
2022-08-14T07:58:58.542Z,84.10
2022-08-14T08:01:27.786Z,83.20
2022-08-14T08:03:59.903Z,83.50
2022-08-14T08:06:28.191Z,83.40
2022-08-14T08:09:02.716Z,85.90
2022-08-14T08:11:37.092Z,84.60
2022-08-14T08:14:17.602Z,84.50
2022-08-14T08:16:51.215Z,83.90
2022-08-14T08:19:19.345Z,83.80
2022-08-14T08:21:47.170Z,84.50
2022-08-14T08:24:19.791Z,85.40
2022-08-14T08:26:50.663Z,84.50
2022-08-14T08:29:28.277Z,83.40
2022-08-14T08:32:01.633Z,84.20
2022-08-14T08:34:46.292Z,84.10
2022-08-14T08:37:13.751Z,83.10
2022-08-14T08:40:02.906Z,82.00
2022-08-14T08:42:38.628Z,83.00
2022-08-14T08:45:14.716Z,82.20
2022-08-14T08:47:44.208Z,80.90
2022-08-14T08:50:23.302Z,82.10
2022-08-14T08:53:09.007Z,80.90
2022-08-14T08:55:44.645Z,83.00
2022-08-14T08:58:20.156Z,82.20
2022-08-14T09:00:54.856Z,82.40
2022-08-14T09:03:27.516Z,81.30
2022-08-14T09:05:57.239Z,82.70
2022-08-14T09:08:31.519Z,82.40
2022-08-14T09:11:02.302Z,82.40
2022-08-14T09:13:30.615Z,81.70
2022-08-14T09:16:00.927Z,81.80
2022-08-14T09:18:46.578Z,81.60
2022-08-14T09:21:16.346Z,83.40
2022-08-14T09:24:28.094Z,83.00
2022-08-14T09:26:30.298Z,82.30
2022-08-14T09:28:59.686Z,81.60
2022-08-14T09:31:28.684Z,81.70
2022-08-14T09:34:28.049Z,82.70
2022-08-14T09:37:37.448Z,82.20
2022-08-14T09:40:24.896Z,81.90
2022-08-14T09:43:23.828Z,81.80
2022-08-14T09:45:52.838Z,82.10
2022-08-14T09:48:29.943Z,82.50
2022-08-14T09:54:12.899Z,83.10
2022-08-14T09:56:31.218Z,81.80
2022-08-14T09:59:12.842Z,82.40
2022-08-14T10:01:52.454Z,81.70
2022-08-14T10:04:32.885Z,80.80
2022-08-14T10:07:08.468Z,80.70
2022-08-14T10:09:59.996Z,81.00
2022-08-14T10:12:46.468Z,81.20
2022-08-14T10:15:19.570Z,80.50
2022-08-14T10:17:49.232Z,81.70
2022-08-14T10:20:40.327Z,81.10
2022-08-14T10:23:17.944Z,83.40
2022-08-14T10:25:50.539Z,83.50
2022-08-14T10:28:39.203Z,84.20
2022-08-14T10:31:20.254Z,84.20
2022-08-14T10:34:12.718Z,83.30
2022-08-14T10:36:47.572Z,84.90
2022-08-14T10:39:21.561Z,85.40
2022-08-14T10:41:53.883Z,85.10
2022-08-14T10:44:29.653Z,84.30
2022-08-14T10:47:41.251Z,84.50
2022-08-14T10:50:00.766Z,85.90
2022-08-14T10:52:33.984Z,86.20
2022-08-14T10:55:16.566Z,85.20
2022-08-14T10:57:54.167Z,84.40
2022-08-14T11:00:30.258Z,84.90
2022-08-14T11:03:13.257Z,85.10
2022-08-14T11:05:55.950Z,85.80
2022-08-14T11:08:33.872Z,85.10
2022-08-14T11:11:04.051Z,86.30
2022-08-14T11:13:31.910Z,86.30
2022-08-14T11:16:01.153Z,85.40
2022-08-14T11:18:32.175Z,85.80
2022-08-14T11:21:05.131Z,87.00
2022-08-14T11:23:39.825Z,85.60
2022-08-14T11:26:10.198Z,86.70
2022-08-14T11:28:46.267Z,85.50
2022-08-14T11:31:18.050Z,86.20
2022-08-14T11:33:57.832Z,85.60
2022-08-14T11:36:57.052Z,86.40
2022-08-14T11:39:34.802Z,85.70
2022-08-14T11:42:57.806Z,84.10
2022-08-14T11:44:59.870Z,84.80
2022-08-14T11:47:34.869Z,84.60
2022-08-14T11:50:14.446Z,84.90
2022-08-14T11:53:04.530Z,84.90
2022-08-14T11:55:38.280Z,85.50
2022-08-14T11:58:11.245Z,84.70
2022-08-14T12:00:53.832Z,85.60
2022-08-14T12:03:37.880Z,84.00
2022-08-14T12:06:27.986Z,85.40
2022-08-14T12:08:56.915Z,85.00
2022-08-14T12:11:43.370Z,84.60
2022-08-14T12:14:13.432Z,84.80
2022-08-14T12:17:11.750Z,84.50
2022-08-14T12:19:51.569Z,84.70
2022-08-14T12:22:40.166Z,84.00
2022-08-14T12:25:21.194Z,84.40
2022-08-14T12:27:54.733Z,83.70
2022-08-14T12:30:37.660Z,83.40
2022-08-14T12:33:08.753Z,83.90
2022-08-14T12:35:43.707Z,84.50
2022-08-14T12:38:19.329Z,83.00
2022-08-14T12:40:48.970Z,82.10
2022-08-14T12:43:19.856Z,82.30
2022-08-14T12:45:51.031Z,82.70
2022-08-14T12:48:21.431Z,83.50
2022-08-14T12:50:58.448Z,82.10
2022-08-14T12:53:38.449Z,82.90
2022-08-14T12:56:22.620Z,83.10
2022-08-14T12:58:58.078Z,82.30
2022-08-14T13:01:30.909Z,82.10
2022-08-14T13:04:13.488Z,82.00
2022-08-14T13:06:51.191Z,82.30
2022-08-14T13:09:19.757Z,82.10
2022-08-14T13:11:58.857Z,83.20
2022-08-14T13:14:42.429Z,82.90
2022-08-14T13:17:11.589Z,81.50
2022-08-14T13:19:40.634Z,82.00
2022-08-14T13:22:09.907Z,82.30
2022-08-14T13:24:48.004Z,83.00
2022-08-14T13:27:15.707Z,83.00
2022-08-14T13:29:47.507Z,81.90
2022-08-14T13:32:15.339Z,82.80
2022-08-14T13:34:45.439Z,82.10
2022-08-14T13:37:17.282Z,83.40
2022-08-14T13:39:57.497Z,82.20
2022-08-14T13:42:30.949Z,84.10
2022-08-14T13:45:02.307Z,83.10
2022-08-14T13:47:30.830Z,82.80
2022-08-14T13:50:00.404Z,82.80
2022-08-14T13:52:51.828Z,82.70
2022-08-14T13:55:28.039Z,83.40
2022-08-14T13:58:03.318Z,83.00
2022-08-14T14:00:35.766Z,82.70
2022-08-14T14:03:08.754Z,82.70
2022-08-14T14:05:52.772Z,82.80
2022-08-14T14:08:43.206Z,82.80
2022-08-14T14:11:13.255Z,82.50
2022-08-14T14:13:45.122Z,82.50
2022-08-14T14:16:15.387Z,82.00
2022-08-14T14:18:55.842Z,81.70
2022-08-14T14:21:28.675Z,82.80
2022-08-14T14:23:56.499Z,83.00
2022-08-14T14:26:24.844Z,83.00
2022-08-14T14:28:55.330Z,84.20
2022-08-14T14:31:29.973Z,82.60
2022-08-14T14:33:59.880Z,82.10
2022-08-14T14:36:29.375Z,82.40
2022-08-14T14:39:01.213Z,82.30
2022-08-14T14:41:37.712Z,81.80
2022-08-14T14:44:16.477Z,81.80
2022-08-14T14:46:49.427Z,82.00
2022-08-14T14:49:22.188Z,82.40
2022-08-14T14:51:58.941Z,83.90
2022-08-14T14:54:31.592Z,83.30
2022-08-14T14:57:09.166Z,82.40
2022-08-14T14:59:38.310Z,83.20
2022-08-14T15:02:08.143Z,83.00
2022-08-14T15:04:38.133Z,82.70
2022-08-14T15:07:06.318Z,83.20
2022-08-14T15:09:34.486Z,82.40
2022-08-14T15:12:05.582Z,82.70
2022-08-14T15:14:54.749Z,82.40
2022-08-14T15:17:24.973Z,83.20
2022-08-14T15:19:56.708Z,88.20
2022-08-14T15:22:25.289Z,86.70
2022-08-14T15:24:52.381Z,88.10
2022-08-14T15:27:26.234Z,89.00
2022-08-14T15:29:53.846Z,89.10
2022-08-14T15:32:23.134Z,88.20
2022-08-14T15:34:52.556Z,88.00
2022-08-14T15:37:22.084Z,88.10
2022-08-14T15:39:52.575Z,88.80
2022-08-14T15:42:21.230Z,89.10
2022-08-14T15:44:56.897Z,89.30
2022-08-14T15:47:28.510Z,89.10
2022-08-14T15:49:59.015Z,89.20
2022-08-14T15:52:32.789Z,89.50
2022-08-14T15:55:10.113Z,87.90
2022-08-14T15:57:40.038Z,89.30
2022-08-14T16:00:49.904Z,89.70
2022-08-14T16:03:27.482Z,90.00
2022-08-14T16:06:10.836Z,90.30
2022-08-14T16:08:45.291Z,90.00
2022-08-14T16:11:13.932Z,89.60
2022-08-14T16:13:45.066Z,89.10
2022-08-14T16:16:34.655Z,90.00
2022-08-14T16:19:11.070Z,90.20
2022-08-14T16:21:58.360Z,89.70
2022-08-14T16:24:33.061Z,89.70
2022-08-14T16:27:01.477Z,90.40
2022-08-14T16:29:34.521Z,90.30
2022-08-14T16:34:54.866Z,90.30
2022-08-14T16:37:30.547Z,90.40
2022-08-14T16:39:59.309Z,90.60
2022-08-14T16:40:24.512Z,90.30
2022-08-14T16:43:02.241Z,90.80
2022-08-14T16:45:17.235Z,90.90
2022-08-14T16:47:44.498Z,90.90
2022-08-14T16:50:15.326Z,90.90
2022-08-14T16:53:02.298Z,91.20
2022-08-14T16:55:35.266Z,91.20
2022-08-14T16:58:21.311Z,91.50
2022-08-14T17:00:54.123Z,91.60
2022-08-14T17:03:20.842Z,91.60
2022-08-14T17:05:48.591Z,92.10
2022-08-14T17:08:32.828Z,92.10
2022-08-14T17:11:10.533Z,92.20
2022-08-14T17:13:58.190Z,92.20
2022-08-14T17:16:37.407Z,92.50
2022-08-14T17:19:09.830Z,92.50
2022-08-14T17:21:42.029Z,92.80
2022-08-14T17:24:58.199Z,92.70
2022-08-14T17:27:04.195Z,92.80
2022-08-14T17:29:44.979Z,93.00
2022-08-14T17:32:29.507Z,93.10
2022-08-14T17:35:11.055Z,93.10
2022-08-14T17:37:44.847Z,93.30
2022-08-14T17:40:16.397Z,93.60
2022-08-14T17:42:51.893Z,93.40
2022-08-14T17:45:41.670Z,93.50
2022-08-14T17:49:15.248Z,93.70
2022-08-14T17:51:23.670Z,93.70
2022-08-14T17:54:01.432Z,94.00
2022-08-14T17:56:33.844Z,94.00
2022-08-14T17:59:03.941Z,94.30
2022-08-14T18:01:35.426Z,94.40
2022-08-14T18:04:05.729Z,94.40
2022-08-14T18:07:06.145Z,94.50
2022-08-14T18:09:57.422Z,94.60
2022-08-14T18:12:36.730Z,94.80
2022-08-14T18:15:16.630Z,95.00
2022-08-14T18:17:53.359Z,95.10
2022-08-14T18:21:24.692Z,95.30
2022-08-14T18:23:13.716Z,95.60
2022-08-14T18:25:51.810Z,95.90
2022-08-14T18:28:51.739Z,95.80
2022-08-14T18:31:20.174Z,95.90
2022-08-14T18:33:55.787Z,96.20
2022-08-14T18:36:48.565Z,96.40
2022-08-14T18:39:29.566Z,96.50
2022-08-14T18:42:23.378Z,97.00
2022-08-14T18:44:50.897Z,97.30
2022-08-14T18:47:21.133Z,97.20
2022-08-14T18:49:57.839Z,97.50
2022-08-14T18:52:39.829Z,97.80
2022-08-14T18:55:18.360Z,97.90
2022-08-14T18:58:03.940Z,98.10
2022-08-14T19:00:33.889Z,98.30
2022-08-14T19:03:03.372Z,98.40
2022-08-14T19:05:47.611Z,98.80
2022-08-14T19:08:26.310Z,98.90
2022-08-14T19:11:00.683Z,99.10
2022-08-14T19:13:48.090Z,99.20
2022-08-14T19:16:23.762Z,99.40
2022-08-14T19:19:00.542Z,99.60
2022-08-14T19:21:40.941Z,99.60
2022-08-14T19:24:27.354Z,99.90
2022-08-14T19:27:19.498Z,99.90
2022-08-14T19:29:51.235Z,99.90
2022-08-14T19:32:36.600Z,99.90
2022-08-14T19:35:18.211Z,99.90
2022-08-14T19:37:54.818Z,99.90
2022-08-14T19:40:34.474Z,99.90
2022-08-14T19:43:06.778Z,99.90
2022-08-14T19:45:37.975Z,99.90
2022-08-14T19:48:17.841Z,99.90
2022-08-14T19:50:47.179Z,99.90
2022-08-14T19:53:18.314Z,99.90
2022-08-14T19:56:02.357Z,99.90
2022-08-14T20:02:02.863Z,99.90
2022-08-14T20:05:18.266Z,99.90
2022-08-14T20:08:00.438Z,99.90
2022-08-14T20:11:07.095Z,99.90
2022-08-14T20:14:20.547Z,99.90
2022-08-14T20:17:06.139Z,99.90
2022-08-14T20:27:09.265Z,99.90
2022-08-14T20:29:40.617Z,99.90
2022-08-14T20:32:08.572Z,99.90
2022-08-14T20:34:51.514Z,99.90
2022-08-14T20:37:22.137Z,99.90
2022-08-14T20:39:54.708Z,99.90
2022-08-14T20:42:43.915Z,99.90
2022-08-14T20:45:24.243Z,99.90
2022-08-14T20:48:07.207Z,99.90
2022-08-14T20:50:36.731Z,99.90
2022-08-14T20:53:35.443Z,99.90
2022-08-14T20:56:28.698Z,99.90
2022-08-14T20:58:57.681Z,99.90
2022-08-14T21:01:24.592Z,99.90
2022-08-14T21:04:00.883Z,99.90
2022-08-14T21:07:22.826Z,99.90
2022-08-14T21:10:03.139Z,99.90
2022-08-14T21:12:35.122Z,99.90
2022-08-14T21:15:00.591Z,99.90
2022-08-14T21:17:30.166Z,99.90
2022-08-14T21:19:57.348Z,99.90
2022-08-14T21:22:26.844Z,99.90
2022-08-14T21:25:02.286Z,99.90
2022-08-14T21:27:37.510Z,99.90
2022-08-14T21:30:08.917Z,99.90
2022-08-14T21:32:50.183Z,99.90
2022-08-14T21:35:24.611Z,99.90
2022-08-14T21:37:52.454Z,99.90
2022-08-14T21:40:41.802Z,99.90
2022-08-14T21:43:31.618Z,99.90
2022-08-14T21:45:59.683Z,99.90
2022-08-14T21:48:29.737Z,99.90
2022-08-14T21:51:52.444Z,99.90
2022-08-14T21:53:58.801Z,99.90
2022-08-14T21:56:38.287Z,99.90
2022-08-14T21:59:17.794Z,99.90
2022-08-14T22:01:59.422Z,99.90
2022-08-14T22:04:34.566Z,99.90
2022-08-14T22:07:12.115Z,99.90
2022-08-14T22:09:42.779Z,99.90
2022-08-14T22:12:58.271Z,99.90
2022-08-14T22:15:02.964Z,99.90
2022-08-14T22:17:32.316Z,99.90
2022-08-14T22:20:02.790Z,99.90
2022-08-14T22:22:32.109Z,99.90
2022-08-14T22:25:00.893Z,99.90
2022-08-14T22:27:32.235Z,99.90
2022-08-14T22:30:00.589Z,99.90
2022-08-14T22:32:56.128Z,99.90
2022-08-14T22:35:23.494Z,99.90
2022-08-14T22:38:36.341Z,99.90
2022-08-14T22:41:20.727Z,99.90
2022-08-14T22:43:35.891Z,99.90
2022-08-14T22:46:14.550Z,99.90
2022-08-14T22:48:45.550Z,99.90
2022-08-14T22:51:19.136Z,99.90
2022-08-14T22:53:49.403Z,99.90
2022-08-14T22:56:30.090Z,99.90
2022-08-14T22:59:02.477Z,99.90
2022-08-14T23:01:56.748Z,99.90
2022-08-14T23:04:53.981Z,99.90
2022-08-14T23:07:24.310Z,99.90
2022-08-14T23:10:33.340Z,99.90
2022-08-14T23:12:54.450Z,99.90
2022-08-14T23:15:24.525Z,99.90
2022-08-14T23:18:25.480Z,99.90
2022-08-14T23:20:57.725Z,99.90
2022-08-14T23:23:29.394Z,99.90
2022-08-14T23:26:00.508Z,99.90
2022-08-14T23:31:34.360Z,99.90
2022-08-14T23:34:06.776Z,99.90
2022-08-14T23:36:53.003Z,99.90
2022-08-14T23:39:31.455Z,99.90
2022-08-14T23:42:08.350Z,99.90
2022-08-14T23:44:45.863Z,99.90
2022-08-14T23:47:27.866Z,99.90
2022-08-14T23:50:03.671Z,99.90
2022-08-14T23:52:56.221Z,99.90
2022-08-14T23:55:31.224Z,99.90
2022-08-14T23:58:00.606Z,99.90
